createdAt,value
2023-04-25T00:01:59.393Z,8.05
2023-04-25T00:04:26.176Z,8.05
2023-04-25T00:06:52.661Z,8.05
2023-04-25T00:09:19.014Z,8.04
2023-04-25T00:11:45.341Z,8.05
2023-04-25T00:14:11.663Z,8.05
2023-04-25T00:16:38.077Z,8.05
2023-04-25T00:19:04.466Z,8.04
2023-04-25T00:21:30.806Z,8.04
2023-04-25T00:23:57.146Z,8.05
2023-04-25T00:26:23.497Z,8.04
2023-04-25T00:28:49.856Z,8.04
2023-04-25T00:31:16.244Z,8.05
2023-04-25T00:33:42.629Z,8.05
2023-04-25T00:36:08.985Z,8.08
2023-04-25T00:38:35.537Z,8.07
2023-04-25T00:41:01.910Z,8.04
2023-04-25T00:43:28.300Z,8.05
2023-04-25T00:45:54.677Z,8.05
2023-04-25T00:48:21.024Z,8.05
2023-04-25T00:50:47.357Z,8.05
2023-04-25T00:53:13.723Z,8.07
2023-04-25T00:55:40.265Z,8.07
2023-04-25T00:58:06.611Z,8.07
2023-04-25T01:00:33.202Z,8.05
2023-04-25T01:02:59.740Z,8.04
2023-04-25T01:05:26.416Z,8.04
2023-04-25T01:07:52.766Z,8.05
2023-04-25T01:10:19.098Z,8.07
2023-04-25T01:12:45.477Z,8.04
2023-04-25T01:15:11.820Z,8.04
2023-04-25T01:17:38.191Z,8.04
2023-04-25T01:20:04.601Z,8.04
2023-04-25T01:22:30.977Z,8.07
2023-04-25T01:24:57.321Z,8.04
2023-04-25T01:27:23.673Z,8.04
2023-04-25T01:29:50.227Z,8.04
2023-04-25T01:32:16.664Z,8.07
2023-04-25T01:34:43.073Z,8.05
2023-04-25T01:37:09.420Z,8.05
2023-04-25T01:39:35.994Z,8.02
2023-04-25T01:42:02.368Z,8.05
2023-04-25T01:44:28.712Z,8.05
2023-04-25T01:46:55.065Z,8.07
2023-04-25T01:49:21.430Z,8.04
2023-04-25T01:51:47.771Z,8.04
2023-04-25T01:54:14.111Z,8.05
2023-04-25T01:56:40.469Z,8.02
2023-04-25T01:59:06.809Z,8.05
2023-04-25T02:01:33.177Z,8.05
2023-04-25T02:03:59.726Z,8.05
2023-04-25T02:06:26.313Z,8.01
2023-04-25T02:08:52.666Z,8.04
2023-04-25T02:11:19.001Z,8.04
2023-04-25T02:13:45.410Z,8.02
2023-04-25T02:16:11.802Z,8.05
2023-04-25T02:18:38.176Z,8.02
2023-04-25T02:21:04.529Z,8.04
2023-04-25T02:23:30.884Z,8.05
2023-04-25T02:25:57.229Z,8.05
2023-04-25T02:28:23.600Z,8.05
2023-04-25T02:30:49.970Z,8.02
2023-04-25T02:33:16.342Z,8.04
2023-04-25T02:35:42.683Z,8.04
2023-04-25T02:38:09.000Z,8.04
2023-04-25T02:40:35.341Z,8.05
2023-04-25T02:43:01.759Z,8.04
2023-04-25T02:45:28.153Z,8.05
2023-04-25T02:47:54.501Z,8.02
2023-04-25T02:50:20.840Z,8.04
2023-04-25T02:52:47.274Z,8.01
2023-04-25T02:55:13.664Z,8.04
2023-04-25T02:57:40.018Z,8.04
2023-04-25T03:00:06.357Z,8.04
2023-04-25T03:02:32.795Z,8.02
2023-04-25T03:04:59.233Z,8.01
2023-04-25T03:07:25.581Z,8.00
2023-04-25T03:09:51.942Z,8.02
2023-04-25T03:12:18.320Z,8.01
2023-04-25T03:14:44.704Z,8.01
2023-04-25T03:17:11.057Z,8.01
2023-04-25T03:19:37.450Z,8.01
2023-04-25T03:22:03.805Z,8.02
2023-04-25T03:24:30.380Z,8.01
2023-04-25T03:26:56.719Z,8.02
2023-04-25T03:29:23.279Z,8.02
2023-04-25T03:31:49.861Z,8.01
2023-04-25T03:34:16.225Z,8.01
2023-04-25T03:36:42.563Z,8.00
2023-04-25T03:39:09.127Z,8.01
2023-04-25T03:41:35.469Z,7.98
2023-04-25T03:44:01.781Z,8.01
2023-04-25T03:46:28.221Z,8.01
2023-04-25T03:48:54.612Z,7.98
2023-04-25T03:51:21.203Z,8.01
2023-04-25T03:53:47.593Z,7.98
2023-04-25T03:56:13.965Z,8.01
2023-04-25T03:58:40.525Z,8.00
2023-04-25T04:01:06.906Z,8.00
2023-04-25T04:03:34.304Z,8.01
2023-04-25T04:06:00.763Z,8.00
2023-04-25T04:08:27.103Z,7.98
2023-04-25T04:10:53.441Z,7.97
2023-04-25T04:13:19.787Z,8.00
2023-04-25T04:15:46.185Z,7.98
2023-04-25T04:18:12.824Z,7.98
2023-04-25T04:20:39.247Z,7.98
2023-04-25T04:23:05.836Z,7.95
2023-04-25T04:25:32.211Z,7.98
2023-04-25T04:27:58.583Z,7.97
2023-04-25T04:30:24.938Z,7.95
2023-04-25T04:32:51.376Z,7.95
2023-04-25T04:35:17.732Z,7.97
2023-04-25T04:37:44.088Z,7.98
2023-04-25T04:40:10.686Z,7.97
2023-04-25T04:42:37.295Z,7.95
2023-04-25T04:45:03.692Z,7.95
2023-04-25T04:47:31.038Z,7.94
2023-04-25T04:49:57.457Z,7.95
2023-04-25T04:52:23.865Z,7.95
2023-04-25T04:54:50.220Z,7.97
2023-04-25T04:57:16.595Z,7.97
2023-04-25T04:59:42.973Z,7.95
2023-04-25T05:02:09.897Z,7.94
2023-04-25T05:04:36.406Z,7.94
2023-04-25T05:07:03.065Z,7.93
2023-04-25T05:09:29.407Z,7.95
2023-04-25T05:11:55.986Z,7.94
2023-04-25T05:14:22.852Z,7.95
2023-04-25T05:16:49.243Z,7.94
2023-04-25T05:19:15.642Z,7.93
2023-04-25T05:21:42.002Z,7.93
2023-04-25T05:24:09.339Z,7.91
2023-04-25T05:26:35.706Z,7.93
2023-04-25T05:29:02.771Z,7.94
2023-04-25T05:31:29.137Z,7.93
2023-04-25T05:33:55.502Z,7.95
2023-04-25T05:36:21.876Z,7.93
2023-04-25T05:38:48.243Z,7.93
2023-04-25T05:41:14.603Z,7.90
2023-04-25T05:43:40.966Z,7.93
2023-04-25T05:46:07.327Z,7.91
2023-04-25T05:48:34.218Z,7.93
2023-04-25T05:51:00.724Z,7.93
2023-04-25T05:53:27.105Z,7.91
2023-04-25T05:55:53.453Z,7.90
2023-04-25T05:58:19.820Z,7.90
2023-04-25T06:00:46.178Z,7.93
2023-04-25T06:03:12.675Z,7.91
2023-04-25T06:05:39.285Z,7.93
2023-04-25T06:08:05.740Z,7.94
2023-04-25T06:10:32.088Z,7.91
2023-04-25T06:12:58.490Z,7.93
2023-04-25T06:15:28.633Z,7.93
2023-04-25T06:17:55.432Z,7.93
2023-04-25T06:23:09.023Z,7.90
2023-04-25T06:25:35.379Z,7.90
2023-04-25T06:28:01.746Z,7.90
2023-04-25T06:30:28.247Z,7.90
2023-04-25T06:32:54.722Z,7.89
2023-04-25T06:35:21.586Z,7.91
2023-04-25T06:37:47.947Z,7.91
2023-04-25T06:40:14.315Z,7.90
2023-04-25T06:42:41.189Z,7.89
2023-04-25T06:45:07.533Z,7.91
2023-04-25T06:47:33.937Z,7.90
2023-04-25T06:50:00.963Z,7.90
2023-04-25T06:52:27.345Z,7.90
2023-04-25T06:54:54.234Z,7.91
2023-04-25T06:57:21.353Z,7.87
2023-04-25T06:59:48.116Z,7.90
2023-04-25T07:02:14.790Z,7.90
2023-04-25T07:04:41.346Z,7.90
2023-04-25T07:07:09.074Z,7.87
2023-04-25T07:09:35.426Z,7.90
2023-04-25T07:12:01.808Z,7.89
2023-04-25T07:14:28.206Z,7.90
2023-04-25T07:16:55.321Z,7.90
2023-04-25T07:19:21.752Z,7.90
2023-04-25T07:21:48.112Z,7.86
2023-04-25T07:24:14.467Z,7.87
2023-04-25T07:26:40.802Z,7.87
2023-04-25T07:29:07.173Z,7.90
2023-04-25T07:31:33.584Z,7.90
2023-04-25T07:34:01.853Z,7.87
2023-04-25T07:36:29.153Z,7.89
2023-04-25T07:38:55.929Z,7.89
2023-04-25T07:41:22.309Z,7.90
2023-04-25T07:43:48.678Z,7.87
2023-04-25T07:46:15.133Z,7.86
2023-04-25T07:48:41.538Z,7.87
2023-04-25T07:51:07.902Z,7.89
2023-04-25T07:53:34.263Z,7.86
2023-04-25T07:56:00.628Z,7.84
2023-04-25T07:58:27.015Z,7.86
2023-04-25T08:00:53.398Z,7.87
2023-04-25T08:03:19.996Z,7.87
2023-04-25T08:05:46.783Z,7.87
2023-04-25T08:08:15.550Z,7.87
2023-04-25T08:10:41.908Z,7.86
2023-04-25T08:13:08.877Z,7.86
2023-04-25T08:15:35.306Z,7.87
2023-04-25T08:18:01.757Z,7.87
2023-04-25T08:20:28.168Z,7.87
2023-04-25T08:22:54.558Z,7.86
2023-04-25T08:25:20.909Z,7.86
2023-04-25T08:27:47.267Z,7.84
2023-04-25T08:30:14.147Z,7.84
2023-04-25T08:32:40.568Z,7.86
2023-04-25T08:35:06.969Z,7.84
2023-04-25T08:37:33.403Z,7.84
2023-04-25T08:40:01.012Z,7.84
2023-04-25T08:42:27.375Z,7.84
2023-04-25T08:44:53.736Z,7.86
2023-04-25T08:47:20.084Z,7.86
2023-04-25T08:49:47.235Z,7.83
2023-04-25T08:52:13.592Z,7.81
2023-04-25T08:54:41.724Z,7.83
2023-04-25T08:57:10.568Z,7.84
2023-04-25T08:59:39.168Z,7.87
2023-04-25T09:02:06.504Z,7.84
2023-04-25T09:04:32.976Z,7.83
2023-04-25T09:06:59.359Z,7.84
2023-04-25T09:09:25.745Z,7.84
2023-04-25T09:11:52.091Z,7.83
2023-04-25T09:14:19.071Z,7.83
2023-04-25T09:16:45.659Z,7.81
2023-04-25T09:19:12.047Z,7.83
2023-04-25T09:21:38.412Z,7.83
2023-04-25T09:24:04.765Z,7.79
2023-04-25T09:26:31.134Z,7.79
2023-04-25T09:28:57.507Z,7.80
2023-04-25T09:31:23.952Z,7.83
2023-04-25T09:33:51.412Z,7.83
2023-04-25T09:36:18.184Z,7.84
2023-04-25T09:38:44.549Z,7.81
2023-04-25T09:41:10.899Z,7.81
2023-04-25T09:43:37.256Z,7.84
2023-04-25T09:46:03.770Z,7.81
2023-04-25T09:48:30.125Z,7.84
2023-04-25T09:50:56.471Z,7.81
2023-04-25T09:53:22.870Z,7.81
2023-04-25T09:55:49.212Z,7.83
2023-04-25T09:58:15.571Z,7.83
2023-04-25T10:00:42.061Z,7.81
2023-04-25T10:03:08.587Z,7.83
2023-04-25T10:05:35.003Z,7.86
2023-04-25T10:08:01.570Z,7.83
2023-04-25T10:10:28.869Z,7.79
2023-04-25T10:12:56.548Z,7.81
2023-04-25T10:15:22.907Z,7.81
2023-04-25T10:17:49.291Z,7.83
2023-04-25T10:20:15.783Z,7.86
2023-04-25T10:22:42.194Z,7.84
2023-04-25T10:25:08.558Z,7.84
2023-04-25T10:27:35.158Z,7.81
2023-04-25T10:30:01.554Z,7.83
2023-04-25T10:32:30.038Z,7.86
2023-04-25T10:34:57.530Z,7.87
2023-04-25T10:37:24.141Z,7.84
2023-04-25T10:39:50.473Z,7.86
2023-04-25T10:42:17.072Z,7.86
2023-04-25T10:44:43.410Z,7.90
2023-04-25T10:47:10.083Z,7.84
2023-04-25T10:49:36.488Z,7.87
2023-04-25T10:52:03.082Z,7.86
2023-04-25T10:54:29.436Z,7.84
2023-04-25T10:56:55.795Z,7.86
2023-04-25T10:59:22.156Z,7.89
2023-04-25T11:01:48.657Z,7.86
2023-04-25T11:04:15.677Z,7.84
2023-04-25T11:06:42.210Z,7.87
2023-04-25T11:09:08.811Z,7.89
2023-04-25T11:11:35.176Z,7.87
2023-04-25T11:14:01.781Z,7.87
2023-04-25T11:16:28.799Z,7.87
2023-04-25T11:18:55.732Z,7.86
2023-04-25T11:21:22.077Z,7.89
2023-04-25T11:23:48.693Z,7.87
2023-04-25T11:26:15.295Z,7.90
2023-04-25T11:28:41.756Z,7.86
2023-04-25T11:31:08.107Z,7.87
2023-04-25T11:33:34.751Z,7.89
2023-04-25T11:36:01.208Z,7.89
2023-04-25T11:38:29.298Z,7.89
2023-04-25T11:40:55.880Z,7.89
2023-04-25T11:43:22.458Z,7.89
2023-04-25T11:45:48.826Z,7.90
2023-04-25T11:48:15.642Z,7.93
2023-04-25T11:50:42.088Z,7.94
2023-04-25T11:53:08.703Z,7.93
2023-04-25T11:55:35.110Z,7.93
2023-04-25T11:58:01.728Z,7.94
2023-04-25T12:00:28.089Z,7.93
2023-04-25T12:02:55.059Z,7.91
2023-04-25T12:05:30.931Z,7.95
2023-04-25T12:07:59.081Z,7.93
2023-04-25T12:10:25.491Z,7.93
2023-04-25T12:12:52.110Z,7.93
2023-04-25T12:15:18.479Z,7.94
2023-04-25T12:17:45.150Z,7.94
2023-04-25T12:20:11.513Z,7.94
2023-04-25T12:22:37.901Z,7.91
2023-04-25T12:25:04.273Z,7.95
2023-04-25T12:27:30.622Z,7.90
2023-04-25T12:29:57.028Z,7.94
2023-04-25T12:32:23.720Z,7.95
2023-04-25T12:34:50.135Z,7.93
2023-04-25T12:37:16.766Z,7.94
2023-04-25T12:39:43.142Z,7.97
2023-04-25T12:42:09.930Z,7.97
2023-04-25T12:44:36.481Z,7.95
2023-04-25T12:47:02.876Z,7.93
2023-04-25T12:49:29.523Z,7.93
2023-04-25T12:51:55.888Z,7.97
2023-04-25T12:54:22.242Z,7.97
2023-04-25T12:56:48.580Z,7.97
2023-04-25T12:59:14.944Z,7.97
2023-04-25T13:01:41.397Z,7.98
2023-04-25T13:04:07.933Z,8.00
2023-04-25T13:06:34.389Z,7.98
2023-04-25T13:09:01.006Z,7.97
2023-04-25T13:11:27.378Z,8.01
2023-04-25T13:13:54.008Z,8.00
2023-04-25T13:16:20.785Z,8.01
2023-04-25T13:18:47.135Z,8.02
2023-04-25T13:21:13.507Z,8.01
2023-04-25T13:23:39.865Z,8.00
2023-04-25T13:26:06.220Z,8.01
2023-04-25T13:28:32.587Z,8.01
2023-04-25T13:30:58.974Z,8.04
2023-04-25T13:33:25.375Z,8.02
2023-04-25T13:35:51.739Z,8.02
2023-04-25T13:38:18.088Z,8.02
2023-04-25T13:40:44.561Z,8.04
2023-04-25T13:43:10.944Z,8.04
2023-04-25T13:45:37.355Z,8.01
2023-04-25T13:48:03.809Z,8.01
2023-04-25T13:50:30.488Z,8.05
2023-04-25T13:52:56.856Z,8.01
2023-04-25T13:55:23.254Z,8.02
2023-04-25T13:57:49.624Z,8.02
2023-04-25T14:00:15.986Z,8.04
2023-04-25T14:02:42.812Z,8.01
2023-04-25T14:05:09.297Z,8.01
2023-04-25T14:07:35.664Z,8.01
2023-04-25T14:10:02.027Z,8.02
2023-04-25T14:12:28.375Z,8.04
2023-04-25T14:14:57.822Z,8.01
2023-04-25T14:17:24.216Z,8.01
2023-04-25T14:19:50.612Z,8.04
2023-04-25T14:22:17.020Z,8.01
2023-04-25T14:24:43.403Z,8.01
2023-04-25T14:27:09.757Z,8.04
2023-04-25T14:29:36.211Z,8.01
2023-04-25T14:32:02.870Z,8.01
2023-04-25T14:34:29.236Z,8.02
2023-04-25T14:36:55.871Z,8.02
2023-04-25T14:39:22.245Z,8.01
2023-04-25T14:41:48.625Z,8.02
2023-04-25T14:44:14.973Z,8.02
2023-04-25T14:46:41.345Z,8.02
2023-04-25T14:49:07.810Z,8.02
2023-04-25T14:51:34.192Z,8.02
2023-04-25T14:54:00.827Z,8.01
2023-04-25T14:56:27.228Z,8.02
2023-04-25T14:58:53.823Z,8.02
2023-04-25T15:01:20.332Z,8.02
2023-04-25T15:03:47.218Z,8.02
2023-04-25T15:06:13.700Z,8.04
2023-04-25T15:08:40.306Z,8.02
2023-04-25T15:11:06.683Z,8.02
2023-04-25T15:13:33.288Z,8.04
2023-04-25T15:15:59.622Z,8.04
2023-04-25T15:18:26.341Z,8.04
2023-04-25T15:20:52.751Z,8.04
2023-04-25T15:23:19.114Z,8.02
2023-04-25T15:25:45.479Z,8.07
2023-04-25T15:28:12.098Z,8.04
2023-04-25T15:30:38.443Z,8.07
2023-04-25T15:33:05.076Z,8.10
2023-04-25T15:35:31.500Z,8.07
2023-04-25T15:37:58.121Z,8.05
2023-04-25T15:40:24.473Z,8.07
2023-04-25T15:42:51.083Z,8.08
2023-04-25T15:45:17.444Z,8.08
2023-04-25T15:47:44.111Z,8.10
2023-04-25T15:50:10.616Z,8.08
2023-04-25T15:52:36.996Z,8.08
2023-04-25T15:55:03.390Z,8.08
2023-04-25T15:57:30.002Z,8.08
2023-04-25T15:59:56.470Z,8.10
2023-04-25T16:02:23.169Z,8.10
2023-04-25T16:04:49.907Z,8.08
2023-04-25T16:07:16.631Z,8.10
2023-04-25T16:09:42.987Z,8.07
2023-04-25T16:12:09.577Z,8.11
2023-04-25T16:14:35.965Z,8.08
2023-04-25T16:17:02.628Z,8.10
2023-04-25T16:19:29.026Z,8.11
2023-04-25T16:21:55.406Z,8.10
2023-04-25T16:24:21.754Z,8.10
2023-04-25T16:26:48.096Z,8.07
2023-04-25T16:29:14.458Z,8.08
2023-04-25T16:31:40.896Z,8.12
2023-04-25T16:34:07.264Z,8.10
2023-04-25T16:36:33.614Z,8.11
2023-04-25T16:38:59.953Z,8.10
2023-04-25T16:41:26.323Z,8.12
2023-04-25T16:43:52.784Z,8.07
2023-04-25T16:46:19.180Z,8.10
2023-04-25T16:48:45.589Z,8.10
2023-04-25T16:51:11.942Z,8.08
2023-04-25T16:53:38.287Z,8.08
2023-04-25T16:56:04.641Z,8.08
2023-04-25T16:58:30.999Z,8.10
2023-04-25T17:00:57.423Z,8.10
2023-04-25T17:03:24.126Z,8.10
2023-04-25T17:05:50.759Z,8.10
2023-04-25T17:08:17.112Z,8.10
2023-04-25T17:10:43.704Z,8.07
2023-04-25T17:13:10.058Z,8.10
2023-04-25T17:15:36.646Z,8.10
2023-04-25T17:18:03.033Z,8.10
2023-04-25T17:20:29.977Z,8.10
2023-04-25T17:22:56.337Z,8.08
2023-04-25T17:25:22.718Z,8.10
2023-04-25T17:27:49.104Z,8.10
2023-04-25T17:30:15.457Z,8.10
2023-04-25T17:32:41.846Z,8.08
2023-04-25T17:35:08.251Z,8.07
2023-04-25T17:37:34.805Z,8.08
2023-04-25T17:40:01.140Z,8.08
2023-04-25T17:42:27.499Z,8.10
2023-04-25T17:44:53.861Z,8.08
2023-04-25T17:47:20.217Z,8.08
2023-04-25T17:49:46.582Z,8.08
2023-04-25T17:52:13.196Z,8.08
2023-04-25T17:54:39.794Z,8.08
2023-04-25T17:57:06.116Z,8.08
2023-04-25T17:59:32.455Z,8.08
2023-04-25T18:01:58.862Z,8.07
2023-04-25T18:04:25.280Z,8.07
2023-04-25T18:06:51.654Z,8.05
2023-04-25T18:09:18.024Z,8.07
2023-04-25T18:11:44.617Z,8.10
2023-04-25T18:14:10.939Z,8.11
2023-04-25T18:16:37.315Z,8.07
2023-04-25T18:19:03.729Z,8.08
2023-04-25T18:21:30.059Z,8.07
2023-04-25T18:23:56.405Z,8.08
2023-04-25T18:26:22.769Z,8.08
2023-04-25T18:28:49.569Z,8.08
2023-04-25T18:31:16.089Z,8.08
2023-04-25T18:33:42.458Z,8.05
2023-04-25T18:36:08.818Z,8.10
2023-04-25T18:38:36.169Z,8.05
2023-04-25T18:41:10.548Z,8.07
2023-04-25T18:43:47.248Z,8.07
2023-04-25T18:46:13.885Z,8.07
2023-04-25T18:48:40.276Z,8.08
2023-04-25T18:51:06.603Z,8.05
2023-04-25T18:53:32.977Z,8.08
2023-04-25T18:55:59.356Z,8.08
2023-04-25T18:58:25.721Z,8.07
2023-04-25T19:00:52.145Z,8.05
2023-04-25T19:03:18.923Z,8.08
2023-04-25T19:05:45.438Z,8.08
2023-04-25T19:08:11.783Z,8.05
2023-04-25T19:10:38.165Z,8.07
2023-04-25T19:13:04.497Z,8.07
2023-04-25T19:15:30.852Z,8.02
2023-04-25T19:17:57.263Z,8.04
2023-04-25T19:20:23.813Z,8.07
2023-04-25T19:22:50.152Z,8.04
2023-04-25T19:25:16.503Z,8.04
2023-04-25T19:27:42.839Z,8.04
2023-04-25T19:30:09.242Z,8.04
2023-04-25T19:32:35.936Z,8.04
2023-04-25T19:35:02.367Z,8.05
2023-04-25T19:37:28.700Z,8.04
2023-04-25T19:39:55.066Z,8.04
2023-04-25T19:42:21.435Z,8.04
2023-04-25T19:44:47.823Z,8.04
2023-04-25T19:47:14.186Z,8.04
2023-04-25T19:49:40.527Z,8.05
2023-04-25T19:52:07.116Z,8.04
2023-04-25T19:54:33.687Z,8.04
2023-04-25T19:57:00.043Z,8.04
2023-04-25T19:59:26.365Z,8.02
2023-04-25T20:01:52.801Z,8.04
2023-04-25T20:04:19.291Z,8.04
2023-04-25T20:06:45.691Z,8.04
2023-04-25T20:09:12.077Z,8.05
2023-04-25T20:11:38.658Z,8.04
2023-04-25T20:14:05.027Z,8.02
2023-04-25T20:16:31.422Z,8.02
2023-04-25T20:18:57.823Z,8.04
2023-04-25T20:21:24.180Z,8.04
2023-04-25T20:23:50.523Z,8.02
2023-04-25T20:26:16.919Z,8.04
2023-04-25T20:28:43.518Z,8.05
2023-04-25T20:31:09.912Z,8.02
2023-04-25T20:33:36.292Z,8.01
2023-04-25T20:36:02.655Z,8.01
2023-04-25T20:38:29.016Z,8.01
2023-04-25T20:40:55.393Z,8.01
2023-04-25T20:43:21.758Z,8.00
2023-04-25T20:45:48.174Z,8.00
2023-04-25T20:48:14.613Z,7.98
2023-04-25T20:50:40.972Z,8.01
2023-04-25T20:53:07.376Z,8.01
2023-04-25T20:55:33.952Z,7.98
2023-04-25T20:58:00.312Z,7.98
2023-04-25T21:00:26.768Z,7.98
2023-04-25T21:02:53.256Z,8.00
2023-04-25T21:05:19.792Z,8.01
2023-04-25T21:07:46.178Z,8.00
2023-04-25T21:10:12.581Z,7.97
2023-04-25T21:12:38.967Z,7.98
2023-04-25T21:15:05.326Z,7.98
2023-04-25T21:17:31.697Z,8.00
2023-04-25T21:19:58.058Z,7.97
2023-04-25T21:22:24.397Z,7.98
2023-04-25T21:24:50.776Z,7.98
2023-04-25T21:27:17.138Z,7.98
2023-04-25T21:29:43.708Z,7.97
2023-04-25T21:32:10.065Z,7.97
2023-04-25T21:34:36.441Z,7.97
2023-04-25T21:37:02.807Z,7.97
2023-04-25T21:39:29.175Z,7.95
2023-04-25T21:41:55.498Z,7.97
2023-04-25T21:44:21.827Z,7.95
2023-04-25T21:46:48.222Z,7.95
2023-04-25T21:49:14.836Z,7.97
2023-04-25T21:51:41.173Z,7.94
2023-04-25T21:54:07.526Z,7.97
2023-04-25T21:56:33.853Z,7.97
2023-04-25T21:59:00.224Z,7.97
2023-04-25T22:01:26.682Z,7.97
2023-04-25T22:03:53.225Z,7.95
2023-04-25T22:06:19.778Z,7.95
2023-04-25T22:08:46.115Z,7.93
2023-04-25T22:11:12.689Z,7.94
2023-04-25T22:13:39.056Z,7.94
2023-04-25T22:16:05.482Z,7.94
2023-04-25T22:18:31.914Z,7.94
2023-04-25T22:20:58.305Z,7.94
2023-04-25T22:23:24.691Z,7.94
2023-04-25T22:25:51.024Z,7.91
2023-04-25T22:28:17.493Z,7.94
2023-04-25T22:30:43.835Z,7.94
2023-04-25T22:33:10.431Z,7.95
2023-04-25T22:35:36.830Z,7.91
2023-04-25T22:38:03.186Z,7.93
2023-04-25T22:40:29.573Z,7.94
2023-04-25T22:42:55.918Z,7.93
2023-04-25T22:45:22.255Z,7.93
2023-04-25T22:47:48.616Z,7.93
2023-04-25T22:50:15.257Z,7.94
2023-04-25T22:52:41.625Z,7.93
2023-04-25T22:55:08.003Z,7.91
2023-04-25T22:57:34.376Z,7.91
2023-04-25T23:00:00.734Z,7.93
2023-04-25T23:02:27.535Z,7.93
2023-04-25T23:04:54.135Z,7.93
2023-04-25T23:07:20.495Z,7.94
2023-04-25T23:09:46.819Z,7.93
2023-04-25T23:12:13.206Z,7.91
2023-04-25T23:14:39.552Z,7.91
2023-04-25T23:17:06.030Z,7.94
2023-04-25T23:19:32.463Z,7.93
2023-04-25T23:21:58.816Z,7.90
2023-04-25T23:24:25.180Z,7.91
2023-04-25T23:26:51.776Z,7.91
2023-04-25T23:29:18.152Z,7.91
2023-04-25T23:31:44.729Z,7.91
2023-04-25T23:34:11.100Z,7.89
2023-04-25T23:36:37.450Z,7.89
2023-04-25T23:39:03.814Z,7.87
2023-04-25T23:41:30.159Z,7.90
2023-04-25T23:43:56.527Z,7.93
2023-04-25T23:46:22.956Z,7.91
2023-04-25T23:48:49.444Z,7.90
2023-04-25T23:51:15.866Z,7.90
2023-04-25T23:53:42.428Z,7.90
2023-04-25T23:56:08.796Z,7.90
2023-04-25T23:58:35.144Z,7.89
